Boston, Massachusetts
Current Conditions -  °F | °C
As of 8:54 AM on Wednesday 22 Oct 2014 (Local Time) from KBOS Reporting Station
Light Rain Light Rain  
Wind Chill: 55°   Ceiling: 1100
Heat Index: 55°   Visibility: 2mi
Dew Point: 53°   Wind: 22mph
Humidity: 93%   Direction: 30°NNE
Pressure: 30.02"   Gusts: 28mph
Location:  42.36°N, 71.06°W
Report Text: KBOS 221254Z 03019G24KT 2SM -RA BR FEW007 OVC011 13/12 A3002 RMK AO2 PK WND 04029/1207 SFC VIS 2 1/2 RAB52 SLP164 P0000 T01280117
Loading
Personal Weather Stations






























Interactive Weather Map New forecast layout! Learn more

10-Day Weather Forecast

Advertisements
Track Severe Weather on mobile